Flight Track Log - Related Links

Times and Time Zones

All times are in EDT time to prevent confusion due to time zone crossing. See the SWA188 flight status page for this flight to view local times or setup timezone preferences in your user account.

Time Position Orientation Groundspeed Altitude Reporting Facility
EDT Latitude Longitude Course Direction KTS MPH feet Rate Location/Type
Thu 07:31:35 PM 36.0767 -115.1706 96° East 173 199 3,100  Level Los Angeles Center
Thu 07:32:48 PM 36.0764 -115.2586 270° West 242 278 5,500 2,157 Climbing Los Angeles Center
Thu 07:33:04 PM 36.0878 -115.2786 305° West 240 276 6,300 2,066 Climbing Los Angeles Center
Thu 07:33:49 PM 36.1364 -115.2975 343° North 289 333 7,600 1,935 Climbing Los Angeles Center
Thu 07:34:06 PM 36.1583 -115.2797 33° Northeast 281 323 8,300 3,246 Climbing Los Angeles Center
Thu 07:34:50 PM 36.1869 -115.2114 63° Northeast 306 352 10,900 2,952 Climbing Los Angeles Center
Thu 07:35:09 PM 36.1928 -115.1767 78° East 302 348 11,400 2,370 Climbing Los Angeles Center
Thu 07:36:11 PM 36.1964 -115.0583 88° East 341 392 14,100 2,661 Climbing Los Angeles Center
Thu 07:37:00 PM 36.1901 -114.6475 96° East  Level FlightAware Approximate
Thu 07:37:13 PM 36.1986 -114.9303 89° East 369 425 16,900  Level Los Angeles Center
Thu 07:38:15 PM 36.1986 -114.7914 90° East 385 443 19,500 2,177 Climbing Los Angeles Center
Thu 07:39:17 PM 36.1978 -114.6514 90° East 401 461 21,400 1,935 Climbing Los Angeles Center
Thu 07:40:19 PM 36.1967 -114.5011 90° East 430 495 23,500 1,935 Climbing Los Angeles Center
Thu 07:41:21 PM 36.1944 -114.3472 91° East 441 507 25,400 1,742 Climbing Los Angeles Center
Thu 07:42:23 PM 36.1956 -114.1894 89° East 452 520 27,100 1,584 Climbing Los Angeles Center
Thu 07:43:26 PM 36.2228 -113.9939 80° East 474 545 28,700 1,440 Climbing Los Angeles Center
Thu 07:44:28 PM 36.2431 -113.8261 81° East 488 562 30,100 1,306 Climbing Los Angeles Center
Thu 07:45:30 PM 36.2617 -113.6550 82° East 497 572 31,400 1,452 Climbing Los Angeles Center
Thu 07:46:32 PM 36.2819 -113.4825 82° East 501 577 33,100 1,452 Climbing Los Angeles Center
Thu 07:47:34 PM 36.3014 -113.3119 82° East 502 578 34,400 1,306 Climbing Los Angeles Center
Thu 07:48:36 PM 36.3522 -113.1147 72° East 507 583 35,800 1,258 Climbing Los Angeles Center
Thu 07:49:38 PM 36.4150 -112.9686 62° Northeast 493 567 37,000 581 Climbing Los Angeles Center
Thu 07:50:40 PM 36.4769 -112.8181 63° Northeast 491 565 37,000  Level Los Angeles Center
Thu 07:51:43 PM 36.5383 -112.6681 63° Northeast 491 565 37,000  Level Los Angeles Center
Thu 07:52:45 PM 36.5994 -112.5200 63° Northeast 489 563 37,000  Level Los Angeles Center
Thu 07:53:47 PM 36.6722 -112.3383 63° Northeast 489 563 37,000  Level Los Angeles Center
Thu 07:54:49 PM 36.7325 -112.1886 63° Northeast 489 563 37,000  Level Los Angeles Center
Thu 07:55:51 PM 36.7944 -112.0372 63° Northeast 490 564 37,000  Level Los Angeles Center
Thu 07:56:53 PM 36.8550 -111.8842 64° Northeast 491 565 37,000  Level Los Angeles Center
Thu 07:57:55 PM 36.9158 -111.7311 64° Northeast 492 566 37,000  Level Los Angeles Center
Thu 07:58:45 PM 36.9650 -111.6081 63° Northeast 495 570 37,000  Level Denver Center
Thu 07:59:47 PM 37.0364 -111.4244 64° Northeast 494 568 37,000  Level Denver Center
Thu 08:00:49 PM 37.0967 -111.2714 64° Northeast 494 568 37,000  Level Denver Center
Thu 08:01:51 PM 37.1569 -111.1189 64° Northeast 493 567 37,000  Level Denver Center
Thu 08:02:53 PM 37.2150 -110.9653 65° Northeast 491 565 37,000  Level Denver Center
Thu 08:03:55 PM 37.2753 -110.8114 64° Northeast 491 565 37,000  Level Denver Center
Thu 08:04:57 PM 37.3467 -110.6256 64° Northeast 492 566 37,000  Level Denver Center
Thu 08:05:59 PM 37.4058 -110.4708 64° Northeast 493 567 37,000  Level Denver Center
Thu 08:07:01 PM 37.4644 -110.3161 64° Northeast 493 567 37,000  Level Denver Center
Thu 08:08:03 PM 37.5258 -110.1511 65° Northeast 493 567 37,000  Level Denver Center
Thu 08:09:05 PM 37.5822 -110.0028 64° Northeast 492 566 37,000  Level Denver Center
Thu 08:10:07 PM 37.6469 -109.8300 65° Northeast 490 564 37,000  Level Denver Center
Thu 08:11:09 PM 37.7025 -109.6808 65° Northeast 489 563 37,000  Level Denver Center
Thu 08:12:11 PM 37.7664 -109.5089 65° Northeast 485 558 37,000  Level Denver Center
Thu 08:13:13 PM 37.8214 -109.3611 65° Northeast 485 558 37,000  Level Denver Center
Thu 08:14:15 PM 37.8839 -109.1864 66° East 485 558 37,000  Level Denver Center
Thu 08:15:17 PM 37.9392 -109.0383 65° Northeast 485 558 37,000  Level Denver Center
Thu 08:16:19 PM 37.9925 -108.8892 66° East 485 558 37,000  Level Denver Center
Thu 08:17:21 PM 38.0558 -108.7161 65° Northeast 485 558 37,000  Level Denver Center
Thu 08:18:23 PM 38.1103 -108.5619 66° East 489 563 37,000  Level Denver Center
Thu 08:19:26 PM 38.1714 -108.3906 66° East 483 556 37,000  Level Denver Center
Thu 08:20:28 PM 38.2247 -108.2419 65° Northeast 482 555 37,000  Level Denver Center
Thu 08:21:30 PM 38.2847 -108.0700 66° East 481 554 37,000  Level Denver Center
Thu 08:22:32 PM 38.3375 -107.9233 65° Northeast 480 552 37,000  Level Denver Center
Thu 08:23:34 PM 38.3961 -107.7531 66° East 475 547 37,000 -387 Level Denver Center
Thu 08:24:36 PM 38.4481 -107.6050 66° East 476 548 36,200 -871 Descending Denver Center
Thu 08:25:38 PM 38.5214 -107.4397 60° Northeast 479 551 35,200 -919 Descending Denver Center
Thu 08:26:40 PM 38.5828 -107.3017 60° Northeast 475 547 34,300 -968 Descending Denver Center
Thu 08:27:42 PM 38.6525 -107.1472 60° Northeast 469 540 33,200 -1,016 Descending Denver Center
Thu 08:28:44 PM 38.7161 -107.0022 61° Northeast 469 540 32,200 -919 Descending Denver Center
Thu 08:29:46 PM 38.7789 -106.8597 60° Northeast 463 533 31,300 -871 Descending Denver Center
Thu 08:30:48 PM 38.8414 -106.7167 61° Northeast 463 533 30,400 -968 Descending Denver Center
Thu 08:31:50 PM 38.9181 -106.5497 59° Northeast 458 527 29,300 -672 Descending Denver Center
Thu 08:32:53 PM 38.9800 -106.4156 59° Northeast 458 527 29,000 -144 Descending Denver Center
Thu 08:33:55 PM 39.0508 -106.2592 60° Northeast 455 524 29,000 -774 Level Denver Center
Thu 08:34:57 PM 39.1031 -106.1419 60° Northeast 455 524 27,400 -1,548 Descending Denver Center
Thu 08:35:59 PM 39.1725 -105.9875 60° Northeast 419 482 25,800 -1,694 Descending Denver Center
Thu 08:37:01 PM 39.2256 -105.8664 60° Northeast 393 452 23,900 -1,839 Descending Denver Center
Thu 08:38:03 PM 39.2769 -105.7486 61° Northeast 382 440 22,000 -1,694 Descending Denver Center
Thu 08:39:05 PM 39.3303 -105.6264 61° Northeast 388 447 20,400 -1,548 Descending Denver Center
Thu 08:40:07 PM 39.3833 -105.5075 60° Northeast 388 447 18,800 -1,355 Descending Denver Center
Thu 08:41:09 PM 39.3994 -105.3850 80° East 354 407 17,600 -1,258 Descending Denver Center
Thu 08:42:11 PM 39.4064 -105.2367 86° East 349 402 16,200 -1,210 Descending Denver Center
Thu 08:43:13 PM 39.4122 -105.1169 86° East 325 374 15,100 -1,161 Descending Denver Center
Thu 08:44:15 PM 39.4161 -105.0072 87° East 310 357 13,800 -1,548 Descending Denver Center
Thu 08:45:17 PM 39.4247 -104.8872 85° East 309 356 11,900 -1,355 Descending Denver Center
Thu 08:46:19 PM 39.4336 -104.7761 84° East 312 359 11,000 -919 Descending Denver Center
Thu 08:47:21 PM 39.4847 -104.6989 49° Northeast 294 338 10,000 -484 Descending Denver Center
Thu 08:48:23 PM 39.5656 -104.6906 North 277 319 10,000 49 Level Denver Center
Thu 08:49:24 PM 39.6319 -104.6903 360° North 234 269 10,100 49 Climbing Denver Center
Thu 08:50:26 PM 39.6917 -104.7203 339° North 241 277 10,100 -242 Level Denver Center
Thu 08:51:28 PM 39.7114 -104.8000 288° West 235 270 9,600 -871 Descending Denver Center
Thu 08:52:30 PM 39.7650 -104.8328 335° Northwest 246 283 8,300 -1,258 Descending Denver Center
Thu 08:53:32 PM 39.8325 -104.8333 360° North 229 264 7,000 -1,016 Descending Denver Center
Thu 08:54:34 PM 39.8414 -104.7747 79° East 170 196 6,200 -823 Descending Denver Center
Thu 08:55:36 PM 39.8411 -104.7181 90° East 163 188 5,300 -871 Descending Denver Center
Thu 08:57:00 PM 39.8500 -104.6667 75° East  Level FlightAware Approximate
Thu 09:04:00 PM 39.8617 -104.6732 75° East  Level Estimated
Thu 09:05:00 PM 39.8617 -104.6732 157° South  Level Estimated
Thu 09:06:00 PM 39.8617 -104.6732 75° East  Level Estimated

Login

Don't have an account? Register now (free) for customized features, flight alerts, and more!